Pagrindinis puslapis
METAR-TAF:

METAR-TAF

Oro uostai :

Koyuk, Aliaska, Jungtinės Amerikos Valstijos

platuma: 64-56-02N, ilguma: 161-09-29W, Aukštis: 37 m

Dabartinis oras

Ataskaita buvo paskelbta 25 minutes, ne 04:56 UTC
Vėjas 7 kt iš Šiaurės su gūsio iki 15 kt
Temperatūra 13°C
Drėgmė 77%
Slėgis 1001 hPa
Matomumas: 16.1 km
Su prošvaistėmis ne aukštis 5000 ft
Apsiniaukę ne aukštis 6000 ft

METAR: PAKK 160456Z AUTO 36007G15KT 10SM BKN050 OVC060 13/09 A2957 RMK AO2 SLP026 T01280089

Laikas: 21:21 (05:21 UTC)


TAF: trūkstamas

Orai ataskaitas ir orų prognozės (METAR, TAF).

turimą stotys yra geltonos ir raudonos taškus žemėlapyje.

Perkelti pele per norėdami pamatyti stoties vardą.

Tada spustelėkite, norėdami matyti oro stebėjimo ir prognozės.

Norėdami pakeisti žemėlapį: spustelėkite ant žalios mygtukų su juodo kryžiaus žemyn,; žalią mygtuką su brūkšneliu, jei norite nutolinti; arba žalių rodyklių gretimoms žemėlapius.


METAR-TAF: